createdAt,value
2018-08-28T00:00:23.009Z,92
2018-08-28T00:01:23.056Z,92
2018-08-28T00:02:23.654Z,91
2018-08-28T00:03:23.025Z,91
2018-08-28T00:04:22.931Z,91
2018-08-28T00:05:23.450Z,91
2018-08-28T00:06:23.101Z,91
2018-08-28T00:07:23.435Z,91
2018-08-28T00:08:23.445Z,91
2018-08-28T00:09:23.182Z,91
2018-08-28T00:10:23.845Z,92
2018-08-28T00:11:24.162Z,92
2018-08-28T00:12:24.330Z,92
2018-08-28T00:13:23.438Z,92
2018-08-28T00:14:23.294Z,92
2018-08-28T00:15:23.199Z,92
2018-08-28T00:16:23.420Z,92
2018-08-28T00:17:23.193Z,92
2018-08-28T00:18:23.072Z,92
2018-08-28T00:19:23.069Z,92
2018-08-28T00:20:23.133Z,92
2018-08-28T00:21:23.962Z,92
2018-08-28T00:22:23.193Z,92
2018-08-28T00:23:24.289Z,92
2018-08-28T00:34:15.333Z,92
2018-08-28T00:36:16.194Z,93
2018-08-28T00:37:15.290Z,93
2018-08-28T00:38:15.172Z,93
2018-08-28T00:39:15.182Z,93
2018-08-28T00:40:15.200Z,93
2018-08-28T00:41:15.911Z,93
2018-08-28T00:42:15.811Z,93
2018-08-28T00:43:15.274Z,93
2018-08-28T00:45:27.651Z,93
2018-08-28T00:46:27.452Z,93
2018-08-28T00:47:27.633Z,93
2018-08-28T00:48:27.940Z,93
2018-08-28T00:49:27.602Z,93
2018-08-28T00:50:27.905Z,93
2018-08-28T00:51:28.333Z,93
2018-08-28T00:52:27.820Z,93
2018-08-28T00:53:27.510Z,93
2018-08-28T00:54:27.750Z,93
2018-08-28T00:55:28.448Z,93
2018-08-28T00:56:27.841Z,93
2018-08-28T00:57:27.803Z,93
2018-08-28T00:58:28.903Z,93
2018-08-28T00:59:29.331Z,93
2018-08-28T01:00:28.605Z,93
2018-08-28T01:01:27.787Z,93
2018-08-28T01:02:27.673Z,93
2018-08-28T01:03:28.363Z,94
2018-08-28T01:04:28.387Z,94
2018-08-28T01:05:29.662Z,94
2018-08-28T01:06:27.715Z,94
2018-08-28T01:07:28.934Z,94
2018-08-28T01:08:28.160Z,94
2018-08-28T01:09:27.561Z,94
2018-08-28T01:10:27.629Z,94
2018-08-28T01:11:27.799Z,94
2018-08-28T01:12:27.960Z,94
2018-08-28T01:13:28.298Z,94
2018-08-28T01:14:27.670Z,94
2018-08-28T01:15:28.309Z,94
2018-08-28T01:16:27.853Z,94
2018-08-28T01:17:27.672Z,94
2018-08-28T01:18:27.907Z,94
2018-08-28T01:19:27.688Z,94
2018-08-28T01:20:27.697Z,94
2018-08-28T01:21:27.683Z,94
2018-08-28T01:22:27.631Z,94
2018-08-28T01:23:27.795Z,94
2018-08-28T01:24:56.303Z,93
2018-08-28T01:25:31.929Z,93
2018-08-28T01:26:27.696Z,93
2018-08-28T01:27:27.776Z,93
2018-08-28T01:28:28.351Z,93
2018-08-28T01:29:29.025Z,93
2018-08-28T01:30:28.957Z,93
2018-08-28T01:31:27.753Z,93
2018-08-28T01:32:28.265Z,93
2018-08-28T01:34:27.866Z,93
2018-08-28T01:35:28.112Z,93
2018-08-28T01:36:28.009Z,93
2018-08-28T01:37:27.723Z,93
2018-08-28T01:38:27.775Z,93
2018-08-28T01:39:28.033Z,93
2018-08-28T01:40:27.682Z,93
2018-08-28T01:41:28.291Z,93
2018-08-28T01:42:28.439Z,93
2018-08-28T01:43:29.117Z,93
2018-08-28T01:44:27.724Z,94
2018-08-28T01:45:27.880Z,94
2018-08-28T01:46:27.851Z,94
2018-08-28T01:47:27.790Z,94
2018-08-28T01:48:28.176Z,94
2018-08-28T01:49:27.782Z,94
2018-08-28T01:50:27.777Z,94
2018-08-28T01:51:27.962Z,94
2018-08-28T01:52:27.658Z,94
2018-08-28T01:53:27.616Z,94
2018-08-28T01:54:27.759Z,94
2018-08-28T01:55:27.609Z,94
2018-08-28T01:56:28.090Z,94
2018-08-28T01:57:27.934Z,94
2018-08-28T01:58:28.443Z,94
2018-08-28T01:59:27.590Z,94
2018-08-28T02:00:27.585Z,94
2018-08-28T02:01:28.267Z,94
2018-08-28T02:02:27.667Z,94
2018-08-28T02:12:11.176Z,94
2018-08-28T02:12:21.073Z,94
2018-08-28T02:13:21.198Z,94
2018-08-28T02:14:21.702Z,94
2018-08-28T02:15:20.995Z,94
2018-08-28T02:16:20.797Z,94
2018-08-28T02:17:20.714Z,94
2018-08-28T02:18:20.762Z,94
2018-08-28T02:19:20.731Z,94
2018-08-28T02:21:33.502Z,94
2018-08-28T02:22:34.206Z,95
2018-08-28T02:23:33.408Z,95
2018-08-28T02:24:33.808Z,95
2018-08-28T02:25:33.776Z,95
2018-08-28T02:26:33.638Z,95
2018-08-28T02:27:33.536Z,95
2018-08-28T02:28:33.812Z,95
2018-08-28T02:29:33.425Z,95
2018-08-28T02:30:33.962Z,95
2018-08-28T02:41:42.699Z,95
2018-08-28T02:42:38.524Z,95
2018-08-28T02:43:43.927Z,95
2018-08-28T02:44:26.615Z,95
2018-08-28T02:47:18.306Z,94
2018-08-28T02:48:45.163Z,94
2018-08-28T02:49:51.952Z,94
2018-08-28T02:51:28.985Z,94
2018-08-28T02:52:54.455Z,94
2018-08-28T02:54:11.223Z,94
2018-08-28T02:55:13.716Z,94
2018-08-28T02:55:33.744Z,95
2018-08-28T02:56:25.076Z,95
2018-08-28T02:58:45.068Z,95
2018-08-28T03:13:19.715Z,95
2018-08-28T03:14:46.870Z,95
2018-08-28T03:15:57.116Z,95
2018-08-28T03:16:25.609Z,95
2018-08-28T03:17:06.689Z,95
2018-08-28T03:20:11.369Z,95
2018-08-28T03:21:02.595Z,95
2018-08-28T03:22:22.939Z,95
2018-08-28T03:23:06.511Z,95
2018-08-28T03:24:12.202Z,95
2018-08-28T03:24:46.783Z,95
2018-08-28T03:26:00.868Z,95
2018-08-28T03:28:41.634Z,95
2018-08-28T03:30:04.708Z,95
2018-08-28T03:30:36.126Z,95
2018-08-28T03:31:35.045Z,95
2018-08-28T03:32:53.575Z,95
2018-08-28T03:33:32.692Z,95
2018-08-28T03:34:32.801Z,95
2018-08-28T03:37:33.326Z,95
2018-08-28T03:38:33.458Z,95
2018-08-28T03:39:32.703Z,95
2018-08-28T03:43:54.218Z,95
2018-08-28T03:44:17.097Z,95
2018-08-28T03:45:10.071Z,95
2018-08-28T03:46:16.780Z,95
2018-08-28T03:47:19.245Z,95
2018-08-28T03:48:25.529Z,95
2018-08-28T03:52:22.992Z,95
2018-08-28T03:53:11.265Z,95
2018-08-28T03:54:26.728Z,96
2018-08-28T03:55:22.790Z,96
2018-08-28T03:56:15.240Z,96
2018-08-28T03:57:32.100Z,96
2018-08-28T03:58:19.402Z,96
2018-08-28T03:59:20.756Z,96
2018-08-28T04:00:17.937Z,96
2018-08-28T04:01:16.538Z,96
2018-08-28T04:02:16.830Z,96
2018-08-28T04:03:09.492Z,96
2018-08-28T04:05:17.055Z,96
2018-08-28T04:06:17.341Z,96
2018-08-28T04:07:19.069Z,96
2018-08-28T04:08:18.984Z,96
2018-08-28T04:09:13.759Z,96
2018-08-28T04:10:13.009Z,96
2018-08-28T04:12:15.189Z,96
2018-08-28T04:13:16.990Z,96
2018-08-28T04:15:10.675Z,96
2018-08-28T04:16:11.882Z,96
2018-08-28T04:17:15.250Z,96
2018-08-28T04:18:21.391Z,96
2018-08-28T04:19:17.561Z,96
2018-08-28T04:20:12.685Z,96
2018-08-28T04:21:18.056Z,96
2018-08-28T04:22:14.707Z,96
2018-08-28T04:23:18.155Z,96
2018-08-28T04:25:31.436Z,96
2018-08-28T04:27:16.601Z,96
2018-08-28T04:29:18.184Z,96
2018-08-28T04:30:21.155Z,96
2018-08-28T04:37:58.100Z,96
2018-08-28T04:38:56.762Z,96
2018-08-28T04:40:02.123Z,96
2018-08-28T04:41:00.325Z,96
2018-08-28T04:41:57.484Z,96
2018-08-28T04:42:58.504Z,96
2018-08-28T04:43:56.470Z,96
2018-08-28T04:45:12.466Z,96
2018-08-28T04:47:03.997Z,96
2018-08-28T04:47:59.668Z,96
2018-08-28T04:49:02.459Z,96
2018-08-28T04:51:16.320Z,96
2018-08-28T04:51:59.817Z,96
2018-08-28T04:52:58.634Z,96
2018-08-28T04:54:10.351Z,96
2018-08-28T04:54:57.778Z,96
2018-08-28T04:56:06.393Z,96
2018-08-28T04:56:59.376Z,96
2018-08-28T04:58:00.195Z,96
2018-08-28T04:59:17.802Z,96
2018-08-28T05:00:16.681Z,96
2018-08-28T05:00:58.587Z,96
2018-08-28T05:02:01.413Z,96
2018-08-28T05:04:00.933Z,96
2018-08-28T05:04:58.316Z,96
2018-08-28T05:06:03.127Z,96
2018-08-28T05:07:59.789Z,96
2018-08-28T05:08:59.201Z,96
2018-08-28T05:10:00.701Z,96
2018-08-28T05:12:02.473Z,96
2018-08-28T05:13:04.683Z,96
2018-08-28T05:14:04.378Z,96
2018-08-28T05:15:03.897Z,96
2018-08-28T05:16:01.272Z,96
2018-08-28T05:18:00.402Z,96
2018-08-28T05:19:08.917Z,96
2018-08-28T05:20:00.003Z,96
2018-08-28T05:20:58.951Z,96
2018-08-28T05:22:05.842Z,96
2018-08-28T05:22:58.066Z,96
2018-08-28T05:23:59.566Z,96
2018-08-28T05:24:58.573Z,96
2018-08-28T05:26:03.227Z,96
2018-08-28T05:27:01.150Z,96
2018-08-28T05:28:02.120Z,96
2018-08-28T05:29:02.322Z,96
2018-08-28T05:30:00.648Z,96
2018-08-28T05:31:04.265Z,96
2018-08-28T05:31:53.790Z,96
2018-08-28T05:32:58.601Z,96
2018-08-28T05:33:58.326Z,96
2018-08-28T05:34:58.475Z,96
2018-08-28T05:35:55.288Z,96
2018-08-28T05:37:59.877Z,96
2018-08-28T05:39:02.488Z,96
2018-08-28T05:40:02.602Z,96
2018-08-28T05:40:59.118Z,96
2018-08-28T05:42:01.912Z,96
2018-08-28T05:42:59.132Z,96
2018-08-28T05:43:55.908Z,96
2018-08-28T05:46:05.059Z,96
2018-08-28T05:46:57.128Z,96
2018-08-28T05:48:00.210Z,96
2018-08-28T05:49:57.448Z,97
2018-08-28T05:51:03.240Z,97
2018-08-28T05:52:59.804Z,97
2018-08-28T05:53:58.998Z,97
2018-08-28T05:56:06.585Z,96
2018-08-28T05:57:01.504Z,96
2018-08-28T05:58:00.631Z,96
2018-08-28T05:58:59.006Z,96
2018-08-28T06:00:00.906Z,96
2018-08-28T06:01:05.165Z,96
2018-08-28T06:02:59.852Z,96
2018-08-28T06:03:58.143Z,96
2018-08-28T06:06:14.261Z,96
2018-08-28T06:07:02.143Z,96
2018-08-28T06:07:57.569Z,96
2018-08-28T06:09:11.089Z,96
2018-08-28T06:12:57.781Z,96
2018-08-28T06:14:13.442Z,96
2018-08-28T06:15:03.979Z,96
2018-08-28T06:15:55.809Z,96
2018-08-28T06:17:57.319Z,96
2018-08-28T06:20:18.214Z,95
2018-08-28T06:21:10.117Z,95
2018-08-28T06:22:10.346Z,95
2018-08-28T06:23:11.164Z,95
2018-08-28T06:24:07.636Z,95
2018-08-28T06:25:16.108Z,95
2018-08-28T06:26:12.210Z,95
2018-08-28T06:28:11.575Z,95
2018-08-28T06:29:14.458Z,95
2018-08-28T06:30:10.194Z,95
2018-08-28T06:31:13.044Z,95
2018-08-28T06:33:13.111Z,95
2018-08-28T06:34:12.742Z,95
2018-08-28T06:35:12.082Z,95
2018-08-28T06:36:16.873Z,95
2018-08-28T06:38:10.763Z,94
2018-08-28T06:39:12.762Z,94
2018-08-28T06:40:12.331Z,94
2018-08-28T06:41:13.446Z,94
2018-08-28T06:42:16.824Z,94
2018-08-28T06:46:24.542Z,93
2018-08-28T06:47:18.401Z,93
2018-08-28T06:49:18.838Z,92
2018-08-28T06:50:15.481Z,92
2018-08-28T06:51:15.227Z,92
2018-08-28T06:52:21.683Z,92
2018-08-28T06:53:15.352Z,92
2018-08-28T06:54:25.620Z,91
2018-08-28T06:55:18.419Z,91
2018-08-28T06:57:30.344Z,91
2018-08-28T06:58:29.227Z,91
2018-08-28T06:59:20.915Z,91
2018-08-28T07:00:16.307Z,91
2018-08-28T07:01:13.109Z,91
2018-08-28T07:02:08.204Z,90
2018-08-28T07:03:17.374Z,90
2018-08-28T07:04:21.675Z,90
2018-08-28T07:05:15.975Z,91
2018-08-28T07:06:12.846Z,91
2018-08-28T07:07:11.842Z,90
2018-08-28T07:08:14.885Z,90
2018-08-28T07:09:11.775Z,90
2018-08-28T07:11:14.757Z,88
2018-08-28T07:12:22.928Z,88
2018-08-28T07:14:15.261Z,88
2018-08-28T07:19:27.428Z,87
2018-08-28T07:19:50.564Z,87
2018-08-28T07:20:48.332Z,86
2018-08-28T07:21:49.177Z,86
2018-08-28T07:22:50.345Z,86
2018-08-28T07:23:59.180Z,86
2018-08-28T07:24:51.404Z,85
2018-08-28T07:25:46.936Z,85
2018-08-28T07:40:46.319Z,83
2018-08-28T07:41:08.875Z,83
2018-08-28T07:42:03.946Z,83
2018-08-28T07:43:04.260Z,84
2018-08-28T07:44:06.107Z,84
2018-08-28T07:45:03.077Z,85
2018-08-28T07:46:02.105Z,85
2018-08-28T07:47:08.408Z,85
2018-08-28T07:48:09.372Z,86
2018-08-28T07:49:07.331Z,86
2018-08-28T07:50:07.714Z,85
2018-08-28T07:51:08.103Z,85
2018-08-28T07:52:12.272Z,85
2018-08-28T07:53:11.384Z,85
2018-08-28T07:54:04.951Z,85
2018-08-28T07:55:12.261Z,85
2018-08-28T07:57:19.756Z,84
2018-08-28T07:58:04.931Z,82
2018-08-28T07:59:06.806Z,82
2018-08-28T08:00:07.770Z,82
2018-08-28T08:01:13.447Z,82
2018-08-28T08:02:05.207Z,82
2018-08-28T08:03:06.783Z,82
2018-08-28T08:04:08.573Z,82
2018-08-28T08:05:05.940Z,82
2018-08-28T08:12:23.666Z,77
2018-08-28T08:12:44.484Z,77
2018-08-28T08:13:42.715Z,76
2018-08-28T08:14:40.820Z,76
2018-08-28T08:15:42.333Z,78
2018-08-28T08:16:35.881Z,78
2018-08-28T08:17:37.490Z,78
2018-08-28T08:18:38.618Z,77
2018-08-28T08:19:40.640Z,77
2018-08-28T08:20:51.876Z,76
2018-08-28T08:21:40.687Z,76
2018-08-28T08:22:42.742Z,76
2018-08-28T08:23:41.537Z,77
2018-08-28T08:25:38.753Z,75
2018-08-28T08:26:34.114Z,75
2018-08-28T08:27:41.165Z,75
2018-08-28T08:28:40.945Z,75
2018-08-28T08:31:49.254Z,73
2018-08-28T08:32:42.369Z,73
2018-08-28T08:33:37.243Z,72
2018-08-28T08:34:37.212Z,72
2018-08-28T08:35:44.782Z,72
2018-08-28T08:36:52.271Z,69
2018-08-28T08:37:40.739Z,69
2018-08-28T08:42:42.012Z,70
2018-08-28T08:43:48.296Z,69
2018-08-28T08:44:49.716Z,69
2018-08-28T08:47:46.523Z,68
2018-08-28T08:49:43.600Z,68
2018-08-28T08:50:43.876Z,68
2018-08-28T08:51:43.782Z,66
2018-08-28T08:52:49.192Z,66
2018-08-28T08:53:53.442Z,67
2018-08-28T08:54:43.336Z,67
2018-08-28T08:56:00.032Z,67
2018-08-28T08:57:51.839Z,65
2018-08-28T08:58:46.706Z,67
2018-08-28T08:59:48.819Z,67
2018-08-28T09:00:45.613Z,67
2018-08-28T09:12:48.181Z,68
2018-08-28T09:13:51.618Z,68
2018-08-28T09:14:47.506Z,69
2018-08-28T09:15:47.687Z,69
2018-08-28T09:16:53.262Z,68
2018-08-28T09:18:50.587Z,68
2018-08-28T09:19:54.041Z,66
2018-08-28T09:20:52.669Z,66
2018-08-28T09:21:49.400Z,66
2018-08-28T09:23:03.013Z,66
2018-08-28T09:23:51.219Z,66
2018-08-28T09:24:52.419Z,66
2018-08-28T09:26:49.641Z,65
2018-08-28T09:28:58.124Z,65
2018-08-28T09:29:51.566Z,64
2018-08-28T09:30:56.884Z,64
2018-08-28T09:31:46.643Z,63
2018-08-28T09:32:51.574Z,63
2018-08-28T09:33:54.857Z,63
2018-08-28T09:35:49.880Z,61
2018-08-28T09:36:52.559Z,63
2018-08-28T09:37:50.496Z,63
2018-08-28T09:38:48.314Z,63
2018-08-28T09:39:50.042Z,63
2018-08-28T09:40:51.713Z,63
2018-08-28T09:41:48.589Z,63
2018-08-28T09:42:47.531Z,62
2018-08-28T09:45:49.664Z,62
2018-08-28T09:46:45.881Z,62
2018-08-28T09:48:51.533Z,62
2018-08-28T09:49:53.006Z,63
2018-08-28T09:52:32.029Z,63
2018-08-28T09:53:01.433Z,63
2018-08-28T09:54:03.884Z,61
2018-08-28T09:55:11.469Z,60
2018-08-28T09:56:02.602Z,60
2018-08-28T09:57:02.618Z,60
2018-08-28T09:59:07.868Z,59
2018-08-28T10:00:00.014Z,57
2018-08-28T10:01:01.693Z,57
2018-08-28T10:02:06.289Z,57
2018-08-28T10:03:07.206Z,58
2018-08-28T10:04:04.351Z,58
2018-08-28T10:06:05.502Z,58
2018-08-28T10:07:08.792Z,58
2018-08-28T10:08:08.877Z,58
2018-08-28T10:09:05.193Z,58
2018-08-28T10:10:58.457Z,58
2018-08-28T10:11:11.448Z,58
2018-08-28T10:12:39.151Z,58
2018-08-28T10:14:16.210Z,57
2018-08-28T10:15:16.328Z,58
2018-08-28T10:16:14.952Z,58
2018-08-28T10:17:13.131Z,58
2018-08-28T10:18:12.250Z,58
2018-08-28T10:20:14.406Z,57
2018-08-28T10:22:33.615Z,57
2018-08-28T10:23:25.645Z,58
2018-08-28T10:24:27.555Z,58
2018-08-28T10:25:42.643Z,58
2018-08-28T10:26:29.235Z,58
2018-08-28T10:27:30.325Z,58
2018-08-28T10:28:34.511Z,57
2018-08-28T10:29:30.232Z,57
2018-08-28T10:30:42.273Z,57
2018-08-28T10:31:35.011Z,57
2018-08-28T10:32:29.168Z,57
2018-08-28T10:33:30.268Z,56
2018-08-28T10:35:32.000Z,55
2018-08-28T10:36:30.557Z,55
2018-08-28T10:39:27.008Z,56
2018-08-28T10:41:28.551Z,55
2018-08-28T10:42:24.782Z,55
2018-08-28T10:43:31.784Z,54
2018-08-28T10:44:28.343Z,54
2018-08-28T10:46:31.991Z,54
2018-08-28T10:47:25.390Z,54
2018-08-28T10:48:27.933Z,53
2018-08-28T10:50:26.127Z,53
2018-08-28T10:52:39.321Z,54
2018-08-28T10:54:36.324Z,53
2018-08-28T10:55:32.989Z,53
2018-08-28T10:56:30.361Z,53
2018-08-28T10:57:30.883Z,53
2018-08-28T10:58:29.535Z,53
2018-08-28T11:00:39.578Z,53
2018-08-28T11:02:29.472Z,53
2018-08-28T11:03:38.434Z,52
2018-08-28T11:04:27.046Z,52
2018-08-28T11:05:31.522Z,52
2018-08-28T11:09:30.152Z,50
2018-08-28T11:10:27.336Z,50
2018-08-28T11:11:25.567Z,50
2018-08-28T11:12:31.007Z,50
2018-08-28T11:13:25.991Z,50
2018-08-28T11:14:26.709Z,50
2018-08-28T11:15:26.978Z,50
2018-08-28T11:16:55.031Z,51
2018-08-28T11:17:25.323Z,51
2018-08-28T11:18:30.662Z,50
2018-08-28T11:19:34.138Z,50
2018-08-28T11:20:27.761Z,50
2018-08-28T11:21:26.194Z,50
2018-08-28T11:22:29.765Z,50
2018-08-28T11:23:27.730Z,50
2018-08-28T11:24:28.002Z,50
2018-08-28T11:27:24.572Z,50
2018-08-28T11:28:30.258Z,50
2018-08-28T11:29:27.236Z,50
2018-08-28T11:30:34.078Z,50
2018-08-28T11:31:29.770Z,49
2018-08-28T11:32:27.131Z,49
2018-08-28T11:33:26.824Z,49
2018-08-28T11:34:43.562Z,49
2018-08-28T11:35:32.034Z,49
2018-08-28T11:36:34.096Z,49
2018-08-28T11:37:31.926Z,49
2018-08-28T11:38:28.027Z,49
2018-08-28T11:40:34.025Z,48
2018-08-28T11:41:34.845Z,47
2018-08-28T11:42:34.703Z,47
2018-08-28T11:43:42.699Z,47
2018-08-28T11:46:35.848Z,47
2018-08-28T11:47:41.929Z,47
2018-08-28T11:48:40.894Z,47
2018-08-28T11:49:43.874Z,46
2018-08-28T11:50:37.025Z,46
2018-08-28T11:52:39.720Z,46
2018-08-28T11:53:38.188Z,46
2018-08-28T11:55:43.712Z,43
2018-08-28T11:57:47.031Z,47
2018-08-28T11:58:48.176Z,47
2018-08-28T11:59:49.680Z,45
2018-08-28T12:00:52.731Z,45
2018-08-28T12:01:50.855Z,44
2018-08-28T12:02:50.170Z,44
2018-08-28T12:03:49.435Z,44
2018-08-28T12:05:03.248Z,42
2018-08-28T12:08:04.363Z,42
2018-08-28T12:09:49.956Z,44
2018-08-28T12:10:47.733Z,44
2018-08-28T12:11:54.216Z,44
2018-08-28T12:12:52.417Z,44
2018-08-28T12:13:52.919Z,44
2018-08-28T12:14:59.173Z,44
2018-08-28T12:27:36.869Z,45
2018-08-28T12:27:50.881Z,45
2018-08-28T12:29:00.801Z,45
2018-08-28T12:30:09.230Z,45
2018-08-28T12:31:08.469Z,45
2018-08-28T12:32:01.225Z,45
2018-08-28T12:34:02.749Z,43
2018-08-28T12:34:59.935Z,44
2018-08-28T12:37:38.448Z,44
2018-08-28T12:39:02.501Z,44
2018-08-28T12:39:58.346Z,44
2018-08-28T12:41:59.464Z,44
2018-08-28T12:42:58.987Z,43
2018-08-28T12:43:57.085Z,43
2018-08-28T12:44:57.026Z,44
2018-08-28T12:48:11.830Z,44
2018-08-28T12:49:06.169Z,44
2018-08-28T12:51:10.189Z,43
2018-08-28T12:53:14.391Z,43
2018-08-28T12:54:14.428Z,43
2018-08-28T12:57:11.889Z,44
2018-08-28T12:59:07.531Z,44
2018-08-28T12:59:27.052Z,44
2018-08-28T13:01:24.250Z,42
2018-08-28T13:02:24.533Z,42
2018-08-28T13:03:30.266Z,42
2018-08-28T13:04:26.673Z,42
2018-08-28T13:05:30.026Z,43
2018-08-28T13:06:31.871Z,43
2018-08-28T13:07:30.307Z,43
2018-08-28T13:08:38.605Z,44
2018-08-28T13:10:36.594Z,44
2018-08-28T13:11:31.968Z,44
2018-08-28T13:12:28.456Z,44
2018-08-28T13:14:31.670Z,43
2018-08-28T13:15:27.449Z,43
2018-08-28T13:17:27.149Z,43
2018-08-28T13:18:28.499Z,43
2018-08-28T13:19:31.664Z,43
2018-08-28T13:20:39.492Z,42
2018-08-28T13:21:31.385Z,42
2018-08-28T13:22:27.285Z,42
2018-08-28T13:23:28.412Z,42
2018-08-28T13:24:40.501Z,42
2018-08-28T13:25:25.657Z,42
2018-08-28T13:26:26.286Z,44
2018-08-28T13:27:30.903Z,44
2018-08-28T13:28:26.316Z,44
2018-08-28T13:30:26.488Z,44
2018-08-28T13:31:29.837Z,42
2018-08-28T13:33:26.748Z,42
2018-08-28T13:34:23.169Z,42
2018-08-28T13:36:26.069Z,41
2018-08-28T13:38:23.358Z,40
2018-08-28T13:39:40.085Z,40
2018-08-28T13:40:32.079Z,40
2018-08-28T13:41:22.811Z,41
2018-08-28T13:42:32.198Z,41
2018-08-28T13:44:29.280Z,42
2018-08-28T13:45:45.893Z,42
2018-08-28T13:51:19.147Z,42
2018-08-28T13:51:33.144Z,42
2018-08-28T13:52:32.705Z,41
2018-08-28T13:53:31.749Z,42
2018-08-28T13:54:31.968Z,42
2018-08-28T13:55:31.536Z,42
2018-08-28T13:56:32.252Z,41
2018-08-28T13:57:51.293Z,41
2018-08-28T13:58:32.808Z,42
2018-08-28T13:59:42.882Z,42
2018-08-28T14:00:38.250Z,42
2018-08-28T14:01:40.412Z,42
2018-08-28T14:02:32.547Z,42
2018-08-28T14:03:35.214Z,42
2018-08-28T14:04:31.860Z,43
2018-08-28T14:05:41.452Z,43
2018-08-28T14:06:36.093Z,42
2018-08-28T14:07:36.418Z,42
2018-08-28T14:21:37.260Z,42
2018-08-28T14:22:37.475Z,39
2018-08-28T14:24:36.509Z,40
2018-08-28T14:25:36.593Z,40
2018-08-28T14:26:46.752Z,39
2018-08-28T14:27:36.482Z,39
2018-08-28T14:28:36.599Z,39
2018-08-28T14:29:36.567Z,40
2018-08-28T14:30:36.618Z,40
2018-08-28T14:31:38.992Z,40
2018-08-28T14:32:36.516Z,40
2018-08-28T14:33:36.582Z,40
2018-08-28T14:34:36.550Z,40
2018-08-28T14:35:36.731Z,40
2018-08-28T14:36:36.537Z,40
2018-08-28T14:37:36.804Z,39
2018-08-28T14:38:36.666Z,39
2018-08-28T14:39:36.527Z,40
2018-08-28T14:40:36.459Z,40
2018-08-28T14:45:04.407Z,40
2018-08-28T14:46:04.169Z,40
2018-08-28T14:47:04.355Z,40
2018-08-28T14:48:03.906Z,40
2018-08-28T14:49:03.930Z,40
2018-08-28T14:50:03.982Z,40
2018-08-28T14:51:04.130Z,40
2018-08-28T14:52:03.709Z,40
2018-08-28T14:53:03.836Z,40
2018-08-28T14:55:16.647Z,40
2018-08-28T14:56:20.797Z,40
2018-08-28T14:57:16.542Z,40
2018-08-28T14:58:21.133Z,40
2018-08-28T14:59:16.845Z,40
2018-08-28T15:01:16.543Z,40
2018-08-28T15:02:16.567Z,41
2018-08-28T15:03:17.630Z,41
2018-08-28T15:04:17.159Z,41
2018-08-28T15:06:16.929Z,41
2018-08-28T15:08:16.575Z,40
2018-08-28T15:09:16.801Z,40
2018-08-28T15:10:16.541Z,39
2018-08-28T15:12:16.426Z,39
2018-08-28T15:13:16.576Z,39
2018-08-28T15:14:17.314Z,39
2018-08-28T15:21:49.381Z,39
2018-08-28T15:22:16.283Z,39
2018-08-28T15:23:18.924Z,38
2018-08-28T15:24:17.198Z,38
2018-08-28T15:25:17.140Z,37
2018-08-28T15:27:19.031Z,37
2018-08-28T15:31:30.121Z,38
2018-08-28T15:32:30.318Z,38
2018-08-28T15:33:37.874Z,38
2018-08-28T15:34:32.146Z,38
2018-08-28T15:35:29.976Z,38
2018-08-28T15:37:30.051Z,38
2018-08-28T15:38:30.447Z,39
2018-08-28T15:39:30.431Z,39
2018-08-28T15:40:30.033Z,39
2018-08-28T15:51:22.876Z,39
2018-08-28T15:52:22.721Z,39
2018-08-28T15:53:21.440Z,39
2018-08-28T15:54:23.772Z,39
2018-08-28T15:55:21.522Z,39
2018-08-28T15:56:22.148Z,39
2018-08-28T15:57:24.050Z,39
2018-08-28T15:58:21.959Z,39
2018-08-28T15:59:22.719Z,39
2018-08-28T16:02:23.902Z,39
2018-08-28T16:03:22.805Z,39
2018-08-28T16:04:24.002Z,39
2018-08-28T16:05:21.714Z,39
2018-08-28T16:06:21.410Z,38
2018-08-28T16:07:21.497Z,38
2018-08-28T16:08:21.483Z,38
2018-08-28T16:09:22.639Z,38
2018-08-28T16:10:22.715Z,38
2018-08-28T16:12:15.556Z,38
2018-08-28T16:12:24.363Z,38
2018-08-28T16:13:24.758Z,37
2018-08-28T16:14:24.803Z,37
2018-08-28T16:15:24.930Z,37
2018-08-28T16:16:23.851Z,38
2018-08-28T16:17:24.089Z,38
2018-08-28T16:18:24.456Z,39
2018-08-28T16:19:24.589Z,39
2018-08-28T16:20:23.843Z,39
2018-08-28T16:21:24.375Z,39
2018-08-28T16:23:37.570Z,39
2018-08-28T16:24:36.746Z,39
2018-08-28T16:26:37.749Z,39
2018-08-28T16:28:36.840Z,39
2018-08-28T16:29:37.489Z,39
2018-08-28T16:30:36.807Z,39
2018-08-28T16:31:36.839Z,38
2018-08-28T16:32:36.743Z,38
2018-08-28T16:33:36.770Z,38
2018-08-28T16:35:36.754Z,38
2018-08-28T16:36:38.032Z,38
2018-08-28T16:37:38.001Z,38
2018-08-28T16:38:36.811Z,39
2018-08-28T16:39:38.177Z,39
2018-08-28T16:40:37.983Z,39
2018-08-28T16:41:39.812Z,39
2018-08-28T16:42:38.580Z,39
2018-08-28T16:43:38.232Z,39
2018-08-28T16:44:37.966Z,39
2018-08-28T16:45:39.360Z,39
2018-08-28T16:46:38.734Z,40
2018-08-28T16:47:40.255Z,40
2018-08-28T16:48:36.922Z,40
2018-08-28T16:49:37.416Z,38
2018-08-28T16:50:37.081Z,38
2018-08-28T16:51:36.801Z,38
2018-08-28T16:52:38.762Z,38
2018-08-28T16:53:37.432Z,38
2018-08-28T16:54:36.828Z,36
2018-08-28T16:55:37.374Z,36
2018-08-28T16:56:36.999Z,37
2018-08-28T16:57:36.895Z,37
2018-08-28T16:58:37.398Z,37
2018-08-28T17:10:22.687Z,37
2018-08-28T17:11:23.018Z,38
2018-08-28T17:12:22.827Z,38
2018-08-28T17:13:24.664Z,38
2018-08-28T17:14:22.673Z,39
2018-08-28T17:15:22.699Z,39
2018-08-28T17:16:23.827Z,39
2018-08-28T17:17:22.783Z,39
2018-08-28T17:18:24.516Z,39
2018-08-28T17:19:23.523Z,40
2018-08-28T17:20:25.651Z,40
2018-08-28T17:21:23.221Z,40
2018-08-28T17:22:22.723Z,39
2018-08-28T17:23:23.343Z,39
2018-08-28T17:24:22.693Z,39
2018-08-28T17:25:23.978Z,39
2018-08-28T17:26:23.263Z,39
2018-08-28T17:27:23.969Z,39
2018-08-28T17:29:23.654Z,39
2018-08-28T17:30:24.874Z,39
2018-08-28T17:31:22.705Z,39
2018-08-28T17:32:23.251Z,39
2018-08-28T17:33:26.252Z,39
2018-08-28T17:34:23.206Z,39
2018-08-28T17:35:22.670Z,38
2018-08-28T17:36:23.298Z,38
2018-08-28T17:37:24.468Z,38
2018-08-28T17:38:23.361Z,38
2018-08-28T17:39:26.028Z,38
2018-08-28T17:40:24.801Z,38
2018-08-28T17:41:24.314Z,38
2018-08-28T17:42:22.682Z,38
2018-08-28T17:43:23.581Z,38
2018-08-28T17:44:22.974Z,38
2018-08-28T17:45:23.436Z,38
2018-08-28T17:46:24.789Z,38
2018-08-28T17:47:32.866Z,38
2018-08-28T17:48:24.036Z,38
2018-08-28T17:49:24.064Z,38
2018-08-28T17:50:24.222Z,39
2018-08-28T17:51:23.503Z,39
2018-08-28T17:52:22.722Z,39
2018-08-28T17:53:22.775Z,39
2018-08-28T17:54:22.670Z,39
2018-08-28T17:55:22.720Z,39
2018-08-28T17:56:22.862Z,39
2018-08-28T18:08:42.177Z,40
2018-08-28T18:10:42.905Z,42
2018-08-28T18:11:42.288Z,42
2018-08-28T18:12:42.483Z,42
2018-08-28T18:13:42.919Z,42
2018-08-28T18:14:42.913Z,42
2018-08-28T18:15:43.923Z,48
2018-08-28T18:16:43.463Z,48
2018-08-28T18:17:42.269Z,48
2018-08-28T18:18:44.195Z,47
2018-08-28T18:19:43.704Z,47
2018-08-28T18:20:42.329Z,48
2018-08-28T18:21:43.348Z,48
2018-08-28T18:22:42.705Z,48
2018-08-28T18:23:42.877Z,48
2018-08-28T18:24:42.428Z,48
2018-08-28T18:27:57.293Z,51
2018-08-28T18:28:56.912Z,51
2018-08-28T18:29:56.981Z,51
2018-08-28T18:30:57.627Z,52
2018-08-28T18:31:56.786Z,52
2018-08-28T18:33:56.767Z,55
2018-08-28T18:34:56.998Z,55
2018-08-28T18:35:57.487Z,55
2018-08-28T18:36:56.733Z,55
2018-08-28T18:37:58.161Z,55
2018-08-28T18:38:57.751Z,57
2018-08-28T18:39:57.811Z,57
2018-08-28T18:40:57.360Z,57
2018-08-28T18:41:56.767Z,57
2018-08-28T18:42:57.126Z,57
2018-08-28T18:43:57.041Z,57
2018-08-28T18:44:56.771Z,57
2018-08-28T18:45:57.417Z,57
2018-08-28T18:46:58.568Z,57
2018-08-28T18:47:57.101Z,57
2018-08-28T18:48:56.833Z,57
2018-08-28T18:49:56.815Z,57
2018-08-28T18:50:58.780Z,58
2018-08-28T18:51:58.253Z,58
2018-08-28T18:52:57.151Z,58
2018-08-28T18:54:59.065Z,58
2018-08-28T18:55:57.445Z,58
2018-08-28T18:56:56.726Z,58
2018-08-28T18:57:58.836Z,58
2018-08-28T18:58:58.063Z,58
2018-08-28T18:59:56.931Z,58
2018-08-28T19:00:56.746Z,58
2018-08-28T19:01:57.052Z,59
2018-08-28T19:02:57.598Z,59
2018-08-28T19:03:57.198Z,60
2018-08-28T19:04:56.809Z,60
2018-08-28T19:05:56.902Z,60
2018-08-28T19:06:56.856Z,61
2018-08-28T19:07:56.834Z,61
2018-08-28T19:08:57.382Z,63
2018-08-28T19:09:56.773Z,63
2018-08-28T19:10:56.780Z,63
2018-08-28T19:11:56.794Z,64
2018-08-28T19:12:56.785Z,64
2018-08-28T19:13:56.820Z,65